sensor_id;sensor_type;location;lat;lon;timestamp;P1;durP1;ratioP1;P2;durP2;ratioP2
7444;SDS011;3764;48.126;11.594;2023-06-22T00:01:23;7.43;;;4.80;;
7444;SDS011;3764;48.126;11.594;2023-06-22T00:03:50;5.90;;;4.17;;
7444;SDS011;3764;48.126;11.594;2023-06-22T00:06:17;7.37;;;4.47;;
7444;SDS011;3764;48.126;11.594;2023-06-22T00:08:44;12.40;;;4.87;;
7444;SDS011;3764;48.126;11.594;2023-06-22T00:11:11;11.87;;;4.83;;
7444;SDS011;3764;48.126;11.594;2023-06-22T00:13:38;6.53;;;3.90;;
7444;SDS011;3764;48.126;11.594;2023-06-22T00:16:07;11.30;;;4.50;;
7444;SDS011;3764;48.126;11.594;2023-06-22T00:18:34;7.60;;;4.40;;
7444;SDS011;3764;48.126;11.594;2023-06-22T00:21:01;7.13;;;3.80;;
7444;SDS011;3764;48.126;11.594;2023-06-22T00:23:29;11.30;;;4.50;;
7444;SDS011;3764;48.126;11.594;2023-06-22T00:25:59;8.17;;;4.67;;
7444;SDS011;3764;48.126;11.594;2023-06-22T00:28:26;10.43;;;4.87;;
7444;SDS011;3764;48.126;11.594;2023-06-22T00:30:54;6.70;;;4.30;;
7444;SDS011;3764;48.126;11.594;2023-06-22T00:33:22;7.93;;;4.17;;
7444;SDS011;3764;48.126;11.594;2023-06-22T00:35:49;5.67;;;3.80;;
7444;SDS011;3764;48.126;11.594;2023-06-22T00:38:17;7.00;;;4.00;;
7444;SDS011;3764;48.126;11.594;2023-06-22T00:40:45;6.00;;;4.03;;
7444;SDS011;3764;48.126;11.594;2023-06-22T00:43:12;8.33;;;4.60;;
7444;SDS011;3764;48.126;11.594;2023-06-22T00:45:39;6.60;;;4.30;;
7444;SDS011;3764;48.126;11.594;2023-06-22T00:48:06;6.23;;;3.63;;
7444;SDS011;3764;48.126;11.594;2023-06-22T00:50:36;7.07;;;4.37;;
7444;SDS011;3764;48.126;11.594;2023-06-22T00:53:03;6.80;;;3.90;;
7444;SDS011;3764;48.126;11.594;2023-06-22T00:55:33;6.73;;;4.70;;
7444;SDS011;3764;48.126;11.594;2023-06-22T00:58:04;8.27;;;4.60;;
7444;SDS011;3764;48.126;11.594;2023-06-22T01:00:35;6.80;;;4.53;;
7444;SDS011;3764;48.126;11.594;2023-06-22T01:03:02;7.20;;;4.33;;
7444;SDS011;3764;48.126;11.594;2023-06-22T01:05:33;6.33;;;4.30;;
7444;SDS011;3764;48.126;11.594;2023-06-22T01:08:07;7.50;;;4.20;;
7444;SDS011;3764;48.126;11.594;2023-06-22T01:10:43;8.13;;;4.57;;
7444;SDS011;3764;48.126;11.594;2023-06-22T01:13:16;8.67;;;4.17;;
7444;SDS011;3764;48.126;11.594;2023-06-22T01:15:50;7.60;;;4.23;;
7444;SDS011;3764;48.126;11.594;2023-06-22T01:18:21;8.77;;;4.17;;
7444;SDS011;3764;48.126;11.594;2023-06-22T01:20:52;9.43;;;4.80;;
7444;SDS011;3764;48.126;11.594;2023-06-22T01:23:26;6.90;;;4.50;;
7444;SDS011;3764;48.126;11.594;2023-06-22T01:26:12;6.30;;;4.60;;
7444;SDS011;3764;48.126;11.594;2023-06-22T01:28:46;5.60;;;4.00;;
7444;SDS011;3764;48.126;11.594;2023-06-22T01:31:15;8.53;;;4.60;;
7444;SDS011;3764;48.126;11.594;2023-06-22T01:33:45;10.63;;;5.07;;
7444;SDS011;3764;48.126;11.594;2023-06-22T01:36:15;8.07;;;4.23;;
7444;SDS011;3764;48.126;11.594;2023-06-22T01:38:43;7.10;;;4.40;;
7444;SDS011;3764;48.126;11.594;2023-06-22T01:41:12;8.53;;;4.83;;
7444;SDS011;3764;48.126;11.594;2023-06-22T01:43:39;8.57;;;4.30;;
7444;SDS011;3764;48.126;11.594;2023-06-22T01:46:09;10.50;;;3.80;;
7444;SDS011;3764;48.126;11.594;2023-06-22T01:48:37;9.07;;;5.17;;
7444;SDS011;3764;48.126;11.594;2023-06-22T01:51:05;9.50;;;4.90;;
7444;SDS011;3764;48.126;11.594;2023-06-22T01:53:32;8.10;;;5.23;;
7444;SDS011;3764;48.126;11.594;2023-06-22T01:55:59;7.47;;;5.10;;
7444;SDS011;3764;48.126;11.594;2023-06-22T01:58:27;7.87;;;5.53;;
7444;SDS011;3764;48.126;11.594;2023-06-22T02:00:56;6.13;;;4.30;;
7444;SDS011;3764;48.126;11.594;2023-06-22T02:03:31;10.20;;;4.70;;
7444;SDS011;3764;48.126;11.594;2023-06-22T02:06:04;7.00;;;4.37;;
7444;SDS011;3764;48.126;11.594;2023-06-22T02:08:36;10.13;;;4.63;;
7444;SDS011;3764;48.126;11.594;2023-06-22T02:11:07;7.10;;;5.13;;
7444;SDS011;3764;48.126;11.594;2023-06-22T02:13:36;9.10;;;5.70;;
7444;SDS011;3764;48.126;11.594;2023-06-22T02:16:08;8.40;;;5.70;;
7444;SDS011;3764;48.126;11.594;2023-06-22T02:18:38;10.80;;;5.27;;
7444;SDS011;3764;48.126;11.594;2023-06-22T02:21:06;11.83;;;5.63;;
7444;SDS011;3764;48.126;11.594;2023-06-22T02:23:33;10.10;;;5.40;;
7444;SDS011;3764;48.126;11.594;2023-06-22T02:26:01;8.43;;;5.50;;
7444;SDS011;3764;48.126;11.594;2023-06-22T02:28:28;8.53;;;5.00;;
7444;SDS011;3764;48.126;11.594;2023-06-22T02:30:55;9.00;;;5.23;;
7444;SDS011;3764;48.126;11.594;2023-06-22T02:33:22;7.77;;;5.67;;
7444;SDS011;3764;48.126;11.594;2023-06-22T02:35:51;12.40;;;6.20;;
7444;SDS011;3764;48.126;11.594;2023-06-22T02:38:18;7.27;;;4.83;;
7444;SDS011;3764;48.126;11.594;2023-06-22T02:40:45;8.23;;;5.47;;
7444;SDS011;3764;48.126;11.594;2023-06-22T02:43:12;8.90;;;5.13;;
7444;SDS011;3764;48.126;11.594;2023-06-22T02:45:40;8.47;;;5.50;;
7444;SDS011;3764;48.126;11.594;2023-06-22T02:48:07;11.00;;;5.50;;
7444;SDS011;3764;48.126;11.594;2023-06-22T02:50:34;7.90;;;5.43;;
7444;SDS011;3764;48.126;11.594;2023-06-22T02:53:02;9.17;;;5.30;;
7444;SDS011;3764;48.126;11.594;2023-06-22T02:55:30;13.20;;;5.60;;
7444;SDS011;3764;48.126;11.594;2023-06-22T02:57:57;11.33;;;6.83;;
7444;SDS011;3764;48.126;11.594;2023-06-22T03:00:24;7.53;;;5.47;;
7444;SDS011;3764;48.126;11.594;2023-06-22T03:02:55;8.00;;;4.97;;
7444;SDS011;3764;48.126;11.594;2023-06-22T03:05:23;9.50;;;6.17;;
7444;SDS011;3764;48.126;11.594;2023-06-22T03:07:51;11.50;;;5.97;;
7444;SDS011;3764;48.126;11.594;2023-06-22T03:10:19;10.10;;;5.07;;
7444;SDS011;3764;48.126;11.594;2023-06-22T03:12:47;8.33;;;5.63;;
7444;SDS011;3764;48.126;11.594;2023-06-22T03:15:14;10.90;;;5.47;;
7444;SDS011;3764;48.126;11.594;2023-06-22T03:17:42;10.97;;;5.20;;
7444;SDS011;3764;48.126;11.594;2023-06-22T03:20:09;8.47;;;5.10;;
7444;SDS011;3764;48.126;11.594;2023-06-22T03:22:37;7.70;;;5.23;;
7444;SDS011;3764;48.126;11.594;2023-06-22T03:25:05;8.87;;;5.87;;
7444;SDS011;3764;48.126;11.594;2023-06-22T03:27:39;6.70;;;5.10;;
7444;SDS011;3764;48.126;11.594;2023-06-22T03:30:07;8.43;;;6.00;;
7444;SDS011;3764;48.126;11.594;2023-06-22T03:32:36;6.33;;;5.70;;
7444;SDS011;3764;48.126;11.594;2023-06-22T03:35:03;8.37;;;5.27;;
7444;SDS011;3764;48.126;11.594;2023-06-22T03:37:31;10.20;;;6.03;;
7444;SDS011;3764;48.126;11.594;2023-06-22T03:39:58;6.67;;;5.60;;
7444;SDS011;3764;48.126;11.594;2023-06-22T03:42:25;8.87;;;6.27;;
7444;SDS011;3764;48.126;11.594;2023-06-22T03:44:54;9.20;;;5.50;;
7444;SDS011;3764;48.126;11.594;2023-06-22T03:47:21;12.30;;;6.70;;
7444;SDS011;3764;48.126;11.594;2023-06-22T03:49:49;8.83;;;5.90;;
7444;SDS011;3764;48.126;11.594;2023-06-22T03:52:20;7.17;;;5.20;;
7444;SDS011;3764;48.126;11.594;2023-06-22T03:54:47;9.70;;;6.10;;
7444;SDS011;3764;48.126;11.594;2023-06-22T03:57:14;13.10;;;5.93;;
7444;SDS011;3764;48.126;11.594;2023-06-22T03:59:41;9.73;;;6.20;;
7444;SDS011;3764;48.126;11.594;2023-06-22T04:02:09;10.47;;;6.33;;
7444;SDS011;3764;48.126;11.594;2023-06-22T04:04:38;9.10;;;6.07;;
7444;SDS011;3764;48.126;11.594;2023-06-22T04:07:06;9.93;;;5.50;;
7444;SDS011;3764;48.126;11.594;2023-06-22T04:09:33;9.33;;;5.80;;
7444;SDS011;3764;48.126;11.594;2023-06-22T04:12:01;13.77;;;6.87;;
7444;SDS011;3764;48.126;11.594;2023-06-22T04:14:28;12.83;;;6.77;;
7444;SDS011;3764;48.126;11.594;2023-06-22T04:16:55;9.00;;;6.47;;
7444;SDS011;3764;48.126;11.594;2023-06-22T04:19:23;8.10;;;5.63;;
7444;SDS011;3764;48.126;11.594;2023-06-22T04:21:50;12.03;;;6.30;;
7444;SDS011;3764;48.126;11.594;2023-06-22T04:24:17;9.47;;;6.40;;
7444;SDS011;3764;48.126;11.594;2023-06-22T04:26:45;12.90;;;6.70;;
7444;SDS011;3764;48.126;11.594;2023-06-22T04:29:12;9.23;;;6.30;;
7444;SDS011;3764;48.126;11.594;2023-06-22T04:31:40;10.20;;;6.50;;
7444;SDS011;3764;48.126;11.594;2023-06-22T04:34:07;9.67;;;6.50;;
7444;SDS011;3764;48.126;11.594;2023-06-22T04:36:36;10.23;;;6.13;;
7444;SDS011;3764;48.126;11.594;2023-06-22T04:39:04;9.60;;;6.50;;
7444;SDS011;3764;48.126;11.594;2023-06-22T04:41:34;12.13;;;6.63;;
7444;SDS011;3764;48.126;11.594;2023-06-22T04:44:08;10.67;;;6.60;;
7444;SDS011;3764;48.126;11.594;2023-06-22T04:46:35;10.17;;;6.10;;
7444;SDS011;3764;48.126;11.594;2023-06-22T04:49:05;9.80;;;7.97;;
7444;SDS011;3764;48.126;11.594;2023-06-22T04:51:40;11.77;;;7.40;;
7444;SDS011;3764;48.126;11.594;2023-06-22T04:54:08;11.03;;;6.50;;
7444;SDS011;3764;48.126;11.594;2023-06-22T04:56:36;10.03;;;7.07;;
7444;SDS011;3764;48.126;11.594;2023-06-22T04:59:06;7.30;;;5.93;;
7444;SDS011;3764;48.126;11.594;2023-06-22T05:01:38;10.40;;;7.00;;
7444;SDS011;3764;48.126;11.594;2023-06-22T05:04:05;8.90;;;5.83;;
7444;SDS011;3764;48.126;11.594;2023-06-22T05:06:32;11.30;;;7.00;;
7444;SDS011;3764;48.126;11.594;2023-06-22T05:09:01;10.43;;;7.30;;
7444;SDS011;3764;48.126;11.594;2023-06-22T05:11:30;10.03;;;6.73;;
7444;SDS011;3764;48.126;11.594;2023-06-22T05:13:57;16.27;;;8.20;;
7444;SDS011;3764;48.126;11.594;2023-06-22T05:16:24;14.80;;;7.33;;
7444;SDS011;3764;48.126;11.594;2023-06-22T05:18:51;12.63;;;8.57;;
7444;SDS011;3764;48.126;11.594;2023-06-22T05:21:23;13.70;;;7.93;;
7444;SDS011;3764;48.126;11.594;2023-06-22T05:23:52;12.53;;;7.40;;
7444;SDS011;3764;48.126;11.594;2023-06-22T05:26:22;13.33;;;8.57;;
7444;SDS011;3764;48.126;11.594;2023-06-22T05:28:50;11.50;;;7.20;;
7444;SDS011;3764;48.126;11.594;2023-06-22T05:31:18;9.17;;;6.93;;
7444;SDS011;3764;48.126;11.594;2023-06-22T05:33:46;11.67;;;8.23;;
7444;SDS011;3764;48.126;11.594;2023-06-22T05:36:14;12.63;;;7.87;;
7444;SDS011;3764;48.126;11.594;2023-06-22T05:38:41;19.17;;;8.00;;
7444;SDS011;3764;48.126;11.594;2023-06-22T05:41:08;13.47;;;9.13;;
7444;SDS011;3764;48.126;11.594;2023-06-22T05:43:37;15.13;;;9.20;;
7444;SDS011;3764;48.126;11.594;2023-06-22T05:46:04;12.33;;;7.90;;
7444;SDS011;3764;48.126;11.594;2023-06-22T05:48:31;11.73;;;9.17;;
7444;SDS011;3764;48.126;11.594;2023-06-22T05:50:58;11.10;;;8.27;;
7444;SDS011;3764;48.126;11.594;2023-06-22T05:53:25;14.13;;;8.70;;
7444;SDS011;3764;48.126;11.594;2023-06-22T05:55:53;10.00;;;8.33;;
7444;SDS011;3764;48.126;11.594;2023-06-22T05:58:20;14.40;;;8.30;;
7444;SDS011;3764;48.126;11.594;2023-06-22T06:00:48;14.30;;;8.90;;
7444;SDS011;3764;48.126;11.594;2023-06-22T06:03:15;13.73;;;9.07;;
7444;SDS011;3764;48.126;11.594;2023-06-22T06:05:43;11.10;;;8.87;;
7444;SDS011;3764;48.126;11.594;2023-06-22T06:08:11;17.40;;;7.90;;
7444;SDS011;3764;48.126;11.594;2023-06-22T06:10:38;11.07;;;7.70;;
7444;SDS011;3764;48.126;11.594;2023-06-22T06:13:05;10.53;;;7.73;;
7444;SDS011;3764;48.126;11.594;2023-06-22T06:15:33;13.93;;;7.93;;
7444;SDS011;3764;48.126;11.594;2023-06-22T06:18:02;10.50;;;8.33;;
7444;SDS011;3764;48.126;11.594;2023-06-22T06:20:31;10.50;;;8.17;;
7444;SDS011;3764;48.126;11.594;2023-06-22T06:22:58;13.73;;;8.63;;
7444;SDS011;3764;48.126;11.594;2023-06-22T06:25:25;11.83;;;7.33;;
7444;SDS011;3764;48.126;11.594;2023-06-22T06:27:52;13.70;;;8.40;;
7444;SDS011;3764;48.126;11.594;2023-06-22T06:30:20;9.33;;;7.20;;
7444;SDS011;3764;48.126;11.594;2023-06-22T06:32:49;10.00;;;7.70;;
7444;SDS011;3764;48.126;11.594;2023-06-22T06:35:18;9.47;;;6.30;;
7444;SDS011;3764;48.126;11.594;2023-06-22T06:37:46;16.37;;;9.97;;
7444;SDS011;3764;48.126;11.594;2023-06-22T06:40:14;14.30;;;8.00;;
7444;SDS011;3764;48.126;11.594;2023-06-22T06:42:42;12.13;;;8.17;;
7444;SDS011;3764;48.126;11.594;2023-06-22T06:45:10;10.83;;;7.87;;
7444;SDS011;3764;48.126;11.594;2023-06-22T06:47:39;12.93;;;8.97;;
7444;SDS011;3764;48.126;11.594;2023-06-22T06:50:06;10.07;;;7.50;;
7444;SDS011;3764;48.126;11.594;2023-06-22T06:52:36;10.60;;;7.63;;
7444;SDS011;3764;48.126;11.594;2023-06-22T06:55:03;25.13;;;9.30;;
7444;SDS011;3764;48.126;11.594;2023-06-22T06:57:34;11.47;;;7.13;;
7444;SDS011;3764;48.126;11.594;2023-06-22T07:00:02;14.10;;;9.20;;
7444;SDS011;3764;48.126;11.594;2023-06-22T07:02:37;14.00;;;8.80;;
7444;SDS011;3764;48.126;11.594;2023-06-22T07:05:05;17.43;;;9.27;;
7444;SDS011;3764;48.126;11.594;2023-06-22T07:07:33;14.60;;;10.80;;
7444;SDS011;3764;48.126;11.594;2023-06-22T07:10:01;13.53;;;8.23;;
7444;SDS011;3764;48.126;11.594;2023-06-22T07:12:29;17.10;;;9.10;;
7444;SDS011;3764;48.126;11.594;2023-06-22T07:15:00;13.67;;;9.23;;
7444;SDS011;3764;48.126;11.594;2023-06-22T07:17:29;17.13;;;9.20;;
7444;SDS011;3764;48.126;11.594;2023-06-22T07:19:56;12.50;;;8.20;;
7444;SDS011;3764;48.126;11.594;2023-06-22T07:22:23;14.00;;;9.43;;
7444;SDS011;3764;48.126;11.594;2023-06-22T07:24:50;14.47;;;8.93;;
7444;SDS011;3764;48.126;11.594;2023-06-22T07:27:18;15.87;;;9.50;;
7444;SDS011;3764;48.126;11.594;2023-06-22T07:29:46;13.00;;;10.67;;
7444;SDS011;3764;48.126;11.594;2023-06-22T07:32:13;17.23;;;9.07;;
7444;SDS011;3764;48.126;11.594;2023-06-22T07:34:40;14.90;;;9.43;;
7444;SDS011;3764;48.126;11.594;2023-06-22T07:37:08;14.27;;;8.30;;
7444;SDS011;3764;48.126;11.594;2023-06-22T07:39:35;12.90;;;9.40;;
7444;SDS011;3764;48.126;11.594;2023-06-22T07:42:03;12.90;;;9.40;;
7444;SDS011;3764;48.126;11.594;2023-06-22T07:44:32;11.33;;;8.67;;
7444;SDS011;3764;48.126;11.594;2023-06-22T07:46:59;15.90;;;9.10;;
7444;SDS011;3764;48.126;11.594;2023-06-22T07:49:27;15.47;;;9.83;;
7444;SDS011;3764;48.126;11.594;2023-06-22T07:51:54;9.17;;;8.10;;
7444;SDS011;3764;48.126;11.594;2023-06-22T07:54:21;14.43;;;9.30;;
7444;SDS011;3764;48.126;11.594;2023-06-22T07:56:48;14.67;;;9.00;;
7444;SDS011;3764;48.126;11.594;2023-06-22T07:59:15;16.80;;;9.60;;
7444;SDS011;3764;48.126;11.594;2023-06-22T08:01:44;13.50;;;8.97;;
7444;SDS011;3764;48.126;11.594;2023-06-22T08:04:15;16.93;;;9.30;;
7444;SDS011;3764;48.126;11.594;2023-06-22T08:06:42;26.40;;;9.10;;
7444;SDS011;3764;48.126;11.594;2023-06-22T08:09:09;15.87;;;8.97;;
7444;SDS011;3764;48.126;11.594;2023-06-22T08:11:37;15.83;;;9.37;;
7444;SDS011;3764;48.126;11.594;2023-06-22T08:14:04;13.90;;;10.07;;
7444;SDS011;3764;48.126;11.594;2023-06-22T08:16:31;12.07;;;9.47;;
7444;SDS011;3764;48.126;11.594;2023-06-22T08:19:00;15.63;;;9.00;;
7444;SDS011;3764;48.126;11.594;2023-06-22T08:21:27;11.73;;;9.30;;
7444;SDS011;3764;48.126;11.594;2023-06-22T08:23:54;21.70;;;10.33;;
7444;SDS011;3764;48.126;11.594;2023-06-22T08:26:21;11.77;;;8.70;;
7444;SDS011;3764;48.126;11.594;2023-06-22T08:28:48;14.43;;;9.13;;
7444;SDS011;3764;48.126;11.594;2023-06-22T08:31:15;11.83;;;8.57;;
7444;SDS011;3764;48.126;11.594;2023-06-22T08:33:43;15.87;;;9.83;;
7444;SDS011;3764;48.126;11.594;2023-06-22T08:36:12;14.10;;;9.10;;
7444;SDS011;3764;48.126;11.594;2023-06-22T08:38:39;14.97;;;9.40;;
7444;SDS011;3764;48.126;11.594;2023-06-22T08:41:06;19.37;;;9.97;;
7444;SDS011;3764;48.126;11.594;2023-06-22T08:43:33;17.83;;;9.30;;
7444;SDS011;3764;48.126;11.594;2023-06-22T08:46:01;15.67;;;9.00;;
7444;SDS011;3764;48.126;11.594;2023-06-22T08:48:28;12.20;;;8.30;;
7444;SDS011;3764;48.126;11.594;2023-06-22T08:50:55;12.70;;;8.80;;
7444;SDS011;3764;48.126;11.594;2023-06-22T08:53:25;11.40;;;8.47;;
7444;SDS011;3764;48.126;11.594;2023-06-22T08:55:52;22.37;;;9.57;;
7444;SDS011;3764;48.126;11.594;2023-06-22T08:58:20;17.90;;;9.13;;
7444;SDS011;3764;48.126;11.594;2023-06-22T09:00:49;11.17;;;8.20;;
7444;SDS011;3764;48.126;11.594;2023-06-22T09:03:16;14.10;;;9.17;;
7444;SDS011;3764;48.126;11.594;2023-06-22T09:05:45;13.33;;;8.60;;
7444;SDS011;3764;48.126;11.594;2023-06-22T09:08:12;15.10;;;8.30;;
7444;SDS011;3764;48.126;11.594;2023-06-22T09:10:41;13.17;;;8.73;;
7444;SDS011;3764;48.126;11.594;2023-06-22T09:13:08;10.93;;;8.50;;
7444;SDS011;3764;48.126;11.594;2023-06-22T09:15:35;13.77;;;8.33;;
7444;SDS011;3764;48.126;11.594;2023-06-22T09:18:02;11.73;;;8.37;;
7444;SDS011;3764;48.126;11.594;2023-06-22T09:20:30;13.63;;;8.80;;
7444;SDS011;3764;48.126;11.594;2023-06-22T09:22:57;15.30;;;8.40;;
7444;SDS011;3764;48.126;11.594;2023-06-22T09:25:24;11.30;;;7.87;;
7444;SDS011;3764;48.126;11.594;2023-06-22T09:27:52;10.87;;;8.97;;
7444;SDS011;3764;48.126;11.594;2023-06-22T09:30:20;25.40;;;9.30;;
7444;SDS011;3764;48.126;11.594;2023-06-22T09:32:48;14.27;;;8.97;;
7444;SDS011;3764;48.126;11.594;2023-06-22T09:35:15;13.90;;;8.57;;
7444;SDS011;3764;48.126;11.594;2023-06-22T09:37:42;13.60;;;8.80;;
7444;SDS011;3764;48.126;11.594;2023-06-22T09:40:10;13.83;;;8.27;;
7444;SDS011;3764;48.126;11.594;2023-06-22T09:42:38;15.97;;;8.93;;
7444;SDS011;3764;48.126;11.594;2023-06-22T09:45:07;18.63;;;8.20;;
7444;SDS011;3764;48.126;11.594;2023-06-22T09:47:35;14.83;;;9.10;;
7444;SDS011;3764;48.126;11.594;2023-06-22T09:50:02;11.57;;;8.20;;
7444;SDS011;3764;48.126;11.594;2023-06-22T09:52:30;13.57;;;8.57;;
7444;SDS011;3764;48.126;11.594;2023-06-22T09:54:57;11.97;;;8.47;;
7444;SDS011;3764;48.126;11.594;2023-06-22T09:57:24;12.07;;;8.60;;
7444;SDS011;3764;48.126;11.594;2023-06-22T09:59:51;15.53;;;9.27;;
7444;SDS011;3764;48.126;11.594;2023-06-22T10:02:19;15.77;;;9.13;;
7444;SDS011;3764;48.126;11.594;2023-06-22T10:04:47;16.90;;;10.47;;
7444;SDS011;3764;48.126;11.594;2023-06-22T10:07:14;17.03;;;9.37;;
7444;SDS011;3764;48.126;11.594;2023-06-22T10:09:41;11.70;;;8.80;;
7444;SDS011;3764;48.126;11.594;2023-06-22T10:12:08;19.30;;;9.23;;
7444;SDS011;3764;48.126;11.594;2023-06-22T10:14:35;14.63;;;8.80;;
7444;SDS011;3764;48.126;11.594;2023-06-22T10:17:02;12.63;;;8.20;;
7444;SDS011;3764;48.126;11.594;2023-06-22T10:19:33;17.10;;;8.83;;
7444;SDS011;3764;48.126;11.594;2023-06-22T10:22:02;13.73;;;9.37;;
7444;SDS011;3764;48.126;11.594;2023-06-22T10:24:30;13.60;;;8.93;;
7444;SDS011;3764;48.126;11.594;2023-06-22T10:26:57;11.37;;;8.40;;
7444;SDS011;3764;48.126;11.594;2023-06-22T10:29:24;16.03;;;9.20;;
7444;SDS011;3764;48.126;11.594;2023-06-22T10:31:51;12.50;;;8.33;;
7444;SDS011;3764;48.126;11.594;2023-06-22T10:34:18;21.00;;;10.00;;
7444;SDS011;3764;48.126;11.594;2023-06-22T10:36:47;14.63;;;9.87;;
7444;SDS011;3764;48.126;11.594;2023-06-22T10:39:14;18.67;;;10.20;;
7444;SDS011;3764;48.126;11.594;2023-06-22T10:41:41;19.90;;;10.63;;
7444;SDS011;3764;48.126;11.594;2023-06-22T10:44:08;10.50;;;8.70;;
7444;SDS011;3764;48.126;11.594;2023-06-22T10:46:36;18.23;;;8.37;;
7444;SDS011;3764;48.126;11.594;2023-06-22T10:49:03;13.60;;;7.10;;
7444;SDS011;3764;48.126;11.594;2023-06-22T10:51:30;14.18;;;8.70;;
7444;SDS011;3764;48.126;11.594;2023-06-22T10:53:58;11.90;;;8.43;;
7444;SDS011;3764;48.126;11.594;2023-06-22T10:56:26;15.90;;;9.27;;
7444;SDS011;3764;48.126;11.594;2023-06-22T10:58:53;13.47;;;9.07;;
7444;SDS011;3764;48.126;11.594;2023-06-22T11:01:20;15.37;;;8.50;;
7444;SDS011;3764;48.126;11.594;2023-06-22T11:03:47;16.53;;;9.20;;
7444;SDS011;3764;48.126;11.594;2023-06-22T11:06:14;13.20;;;8.13;;
7444;SDS011;3764;48.126;11.594;2023-06-22T11:08:43;12.00;;;8.27;;
7444;SDS011;3764;48.126;11.594;2023-06-22T11:11:12;15.10;;;10.70;;
7444;SDS011;3764;48.126;11.594;2023-06-22T11:13:39;13.77;;;8.60;;
7444;SDS011;3764;48.126;11.594;2023-06-22T11:16:06;10.63;;;8.63;;
7444;SDS011;3764;48.126;11.594;2023-06-22T11:18:33;12.80;;;8.30;;
7444;SDS011;3764;48.126;11.594;2023-06-22T11:21:00;19.37;;;9.60;;
7444;SDS011;3764;48.126;11.594;2023-06-22T11:23:27;15.50;;;8.10;;
7444;SDS011;3764;48.126;11.594;2023-06-22T11:25:54;14.23;;;9.90;;
7444;SDS011;3764;48.126;11.594;2023-06-22T11:28:23;18.17;;;9.77;;
7444;SDS011;3764;48.126;11.594;2023-06-22T11:30:53;15.03;;;9.50;;
7444;SDS011;3764;48.126;11.594;2023-06-22T11:33:20;9.70;;;8.20;;
7444;SDS011;3764;48.126;11.594;2023-06-22T11:35:47;15.83;;;8.17;;
7444;SDS011;3764;48.126;11.594;2023-06-22T11:38:14;18.03;;;8.33;;
7444;SDS011;3764;48.126;11.594;2023-06-22T11:40:42;12.50;;;8.87;;
7444;SDS011;3764;48.126;11.594;2023-06-22T11:43:09;11.17;;;8.57;;
7444;SDS011;3764;48.126;11.594;2023-06-22T11:45:37;12.63;;;8.03;;
7444;SDS011;3764;48.126;11.594;2023-06-22T11:48:04;16.57;;;9.50;;
7444;SDS011;3764;48.126;11.594;2023-06-22T11:50:32;15.50;;;9.17;;
7444;SDS011;3764;48.126;11.594;2023-06-22T11:53:01;17.37;;;8.00;;
7444;SDS011;3764;48.126;11.594;2023-06-22T11:55:28;11.93;;;8.50;;
7444;SDS011;3764;48.126;11.594;2023-06-22T11:57:56;17.03;;;9.77;;
7444;SDS011;3764;48.126;11.594;2023-06-22T12:00:28;11.93;;;8.70;;
7444;SDS011;3764;48.126;11.594;2023-06-22T12:02:56;15.63;;;10.00;;
7444;SDS011;3764;48.126;11.594;2023-06-22T12:05:23;11.27;;;7.90;;
7444;SDS011;3764;48.126;11.594;2023-06-22T12:07:52;11.93;;;8.20;;
7444;SDS011;3764;48.126;11.594;2023-06-22T12:10:20;18.60;;;8.37;;
7444;SDS011;3764;48.126;11.594;2023-06-22T12:12:47;15.50;;;9.70;;
7444;SDS011;3764;48.126;11.594;2023-06-22T12:15:14;15.73;;;8.17;;
7444;SDS011;3764;48.126;11.594;2023-06-22T12:17:41;10.33;;;7.80;;
7444;SDS011;3764;48.126;11.594;2023-06-22T12:20:10;12.27;;;8.87;;
7444;SDS011;3764;48.126;11.594;2023-06-22T12:22:37;17.03;;;9.70;;
7444;SDS011;3764;48.126;11.594;2023-06-22T12:25:05;15.83;;;8.90;;
7444;SDS011;3764;48.126;11.594;2023-06-22T12:27:32;14.53;;;9.73;;
7444;SDS011;3764;48.126;11.594;2023-06-22T12:30:00;14.70;;;8.13;;
7444;SDS011;3764;48.126;11.594;2023-06-22T12:32:27;14.80;;;9.30;;
7444;SDS011;3764;48.126;11.594;2023-06-22T12:34:54;17.97;;;8.80;;
7444;SDS011;3764;48.126;11.594;2023-06-22T12:37:23;13.50;;;8.80;;
7444;SDS011;3764;48.126;11.594;2023-06-22T12:39:50;16.00;;;7.90;;
7444;SDS011;3764;48.126;11.594;2023-06-22T12:42:17;11.50;;;7.77;;
7444;SDS011;3764;48.126;11.594;2023-06-22T12:44:46;12.40;;;7.93;;
7444;SDS011;3764;48.126;11.594;2023-06-22T12:47:13;12.00;;;8.30;;
7444;SDS011;3764;48.126;11.594;2023-06-22T12:49:40;11.70;;;7.27;;
7444;SDS011;3764;48.126;11.594;2023-06-22T12:52:10;13.10;;;9.20;;
7444;SDS011;3764;48.126;11.594;2023-06-22T12:54:39;12.97;;;9.57;;
7444;SDS011;3764;48.126;11.594;2023-06-22T12:57:06;15.53;;;8.20;;
7444;SDS011;3764;48.126;11.594;2023-06-22T12:59:33;12.00;;;7.50;;
7444;SDS011;3764;48.126;11.594;2023-06-22T13:02:00;16.63;;;8.43;;
7444;SDS011;3764;48.126;11.594;2023-06-22T13:04:27;16.80;;;8.27;;
7444;SDS011;3764;48.126;11.594;2023-06-22T13:06:54;13.70;;;7.23;;
7444;SDS011;3764;48.126;11.594;2023-06-22T13:09:21;11.47;;;7.30;;
7444;SDS011;3764;48.126;11.594;2023-06-22T13:11:50;17.97;;;7.70;;
7444;SDS011;3764;48.126;11.594;2023-06-22T13:14:18;16.53;;;7.07;;
7444;SDS011;3764;48.126;11.594;2023-06-22T13:16:45;14.83;;;8.17;;
7444;SDS011;3764;48.126;11.594;2023-06-22T13:19:12;11.00;;;7.30;;
7444;SDS011;3764;48.126;11.594;2023-06-22T13:21:39;12.77;;;7.43;;
7444;SDS011;3764;48.126;11.594;2023-06-22T13:24:06;13.17;;;7.30;;
7444;SDS011;3764;48.126;11.594;2023-06-22T13:26:33;8.70;;;7.20;;
7444;SDS011;3764;48.126;11.594;2023-06-22T13:29:02;12.93;;;7.67;;
7444;SDS011;3764;48.126;11.594;2023-06-22T13:31:29;12.20;;;7.47;;
7444;SDS011;3764;48.126;11.594;2023-06-22T13:33:56;12.43;;;7.47;;
7444;SDS011;3764;48.126;11.594;2023-06-22T13:36:23;17.67;;;7.80;;
7444;SDS011;3764;48.126;11.594;2023-06-22T13:38:50;14.30;;;7.77;;
7444;SDS011;3764;48.126;11.594;2023-06-22T13:41:17;8.53;;;5.87;;
7444;SDS011;3764;48.126;11.594;2023-06-22T13:43:44;13.00;;;7.03;;
7444;SDS011;3764;48.126;11.594;2023-06-22T13:46:13;16.67;;;7.93;;
7444;SDS011;3764;48.126;11.594;2023-06-22T13:48:40;12.23;;;7.33;;
7444;SDS011;3764;48.126;11.594;2023-06-22T13:51:07;10.37;;;7.53;;
7444;SDS011;3764;48.126;11.594;2023-06-22T13:53:34;14.63;;;8.03;;
7444;SDS011;3764;48.126;11.594;2023-06-22T13:56:01;12.90;;;8.30;;
7444;SDS011;3764;48.126;11.594;2023-06-22T13:58:28;13.40;;;7.53;;
7444;SDS011;3764;48.126;11.594;2023-06-22T14:00:55;14.40;;;7.60;;
7444;SDS011;3764;48.126;11.594;2023-06-22T14:03:24;8.33;;;6.10;;
7444;SDS011;3764;48.126;11.594;2023-06-22T14:05:51;17.13;;;8.20;;
7444;SDS011;3764;48.126;11.594;2023-06-22T14:08:21;11.27;;;7.00;;
7444;SDS011;3764;48.126;11.594;2023-06-22T14:10:50;13.37;;;7.63;;
7444;SDS011;3764;48.126;11.594;2023-06-22T14:13:18;12.80;;;7.20;;
7444;SDS011;3764;48.126;11.594;2023-06-22T14:15:45;10.73;;;7.40;;
7444;SDS011;3764;48.126;11.594;2023-06-22T14:18:14;14.97;;;7.23;;
7444;SDS011;3764;48.126;11.594;2023-06-22T14:20:42;13.00;;;6.93;;
7444;SDS011;3764;48.126;11.594;2023-06-22T14:23:09;10.00;;;6.70;;
7444;SDS011;3764;48.126;11.594;2023-06-22T14:25:37;10.83;;;6.93;;
7444;SDS011;3764;48.126;11.594;2023-06-22T14:28:05;12.50;;;7.10;;
7444;SDS011;3764;48.126;11.594;2023-06-22T14:30:32;12.20;;;7.70;;
7444;SDS011;3764;48.126;11.594;2023-06-22T14:32:59;9.40;;;7.27;;
7444;SDS011;3764;48.126;11.594;2023-06-22T14:35:26;9.40;;;7.10;;
7444;SDS011;3764;48.126;11.594;2023-06-22T14:37:54;12.10;;;7.87;;
7444;SDS011;3764;48.126;11.594;2023-06-22T14:40:21;16.17;;;7.33;;
7444;SDS011;3764;48.126;11.594;2023-06-22T14:42:48;12.60;;;8.30;;
7444;SDS011;3764;48.126;11.594;2023-06-22T14:45:15;13.90;;;7.47;;
7444;SDS011;3764;48.126;11.594;2023-06-22T14:47:43;11.10;;;7.30;;
7444;SDS011;3764;48.126;11.594;2023-06-22T14:50:10;10.87;;;8.43;;
7444;SDS011;3764;48.126;11.594;2023-06-22T14:52:37;11.67;;;7.30;;
7444;SDS011;3764;48.126;11.594;2023-06-22T14:55:06;10.17;;;7.63;;